sensor_id;sensor_type;location;lat;lon;timestamp;temperature;humidity
47520;DHT22;33252;48.122;11.538;2023-05-07T00:01:25;13.10;99.90
47520;DHT22;33252;48.122;11.538;2023-05-07T00:03:51;13.20;99.90
47520;DHT22;33252;48.122;11.538;2023-05-07T00:06:17;13.10;99.90
47520;DHT22;33252;48.122;11.538;2023-05-07T00:08:42;12.90;99.90
47520;DHT22;33252;48.122;11.538;2023-05-07T00:11:08;13.00;99.90
47520;DHT22;33252;48.122;11.538;2023-05-07T00:13:34;12.90;99.90
47520;DHT22;33252;48.122;11.538;2023-05-07T00:16:02;13.00;99.90
47520;DHT22;33252;48.122;11.538;2023-05-07T00:18:27;13.00;99.90
47520;DHT22;33252;48.122;11.538;2023-05-07T00:20:53;13.00;99.90
47520;DHT22;33252;48.122;11.538;2023-05-07T00:23:19;12.90;99.90
47520;DHT22;33252;48.122;11.538;2023-05-07T00:25:45;12.90;99.90
47520;DHT22;33252;48.122;11.538;2023-05-07T00:28:10;12.90;99.90
47520;DHT22;33252;48.122;11.538;2023-05-07T00:30:36;12.90;99.90
47520;DHT22;33252;48.122;11.538;2023-05-07T00:33:01;13.00;99.90
47520;DHT22;33252;48.122;11.538;2023-05-07T00:35:28;12.90;99.90
47520;DHT22;33252;48.122;11.538;2023-05-07T00:37:57;12.70;99.90
47520;DHT22;33252;48.122;11.538;2023-05-07T00:40:23;12.60;99.90
47520;DHT22;33252;48.122;11.538;2023-05-07T00:42:49;12.80;99.90
47520;DHT22;33252;48.122;11.538;2023-05-07T00:45:15;12.80;99.90
47520;DHT22;33252;48.122;11.538;2023-05-07T00:47:43;12.70;99.90
47520;DHT22;33252;48.122;11.538;2023-05-07T00:50:09;12.80;99.90
47520;DHT22;33252;48.122;11.538;2023-05-07T00:52:37;12.80;99.90
47520;DHT22;33252;48.122;11.538;2023-05-07T00:55:05;12.80;99.90
47520;DHT22;33252;48.122;11.538;2023-05-07T00:57:40;12.60;99.90
47520;DHT22;33252;48.122;11.538;2023-05-07T01:00:07;12.50;99.90
47520;DHT22;33252;48.122;11.538;2023-05-07T01:02:40;12.60;99.90
47520;DHT22;33252;48.122;11.538;2023-05-07T01:05:09;12.60;99.90
47520;DHT22;33252;48.122;11.538;2023-05-07T01:07:37;12.60;99.90
47520;DHT22;33252;48.122;11.538;2023-05-07T01:10:05;12.60;99.90
47520;DHT22;33252;48.122;11.538;2023-05-07T01:12:32;12.60;99.90
47520;DHT22;33252;48.122;11.538;2023-05-07T01:14:58;12.70;99.90
47520;DHT22;33252;48.122;11.538;2023-05-07T01:17:24;12.70;99.90
47520;DHT22;33252;48.122;11.538;2023-05-07T01:19:50;12.50;99.90
47520;DHT22;33252;48.122;11.538;2023-05-07T01:22:17;12.60;99.90
47520;DHT22;33252;48.122;11.538;2023-05-07T01:24:46;12.60;99.90
47520;DHT22;33252;48.122;11.538;2023-05-07T01:27:12;12.70;99.90
47520;DHT22;33252;48.122;11.538;2023-05-07T01:29:38;12.70;99.90
47520;DHT22;33252;48.122;11.538;2023-05-07T01:32:05;12.60;99.90
47520;DHT22;33252;48.122;11.538;2023-05-07T01:34:32;12.50;99.90
47520;DHT22;33252;48.122;11.538;2023-05-07T01:37:00;12.60;99.90
47520;DHT22;33252;48.122;11.538;2023-05-07T01:39:28;12.60;99.90
47520;DHT22;33252;48.122;11.538;2023-05-07T01:41:55;12.70;99.90
47520;DHT22;33252;48.122;11.538;2023-05-07T01:44:22;12.60;99.90
47520;DHT22;33252;48.122;11.538;2023-05-07T01:46:49;12.70;99.90
47520;DHT22;33252;48.122;11.538;2023-05-07T01:49:15;12.60;99.90
47520;DHT22;33252;48.122;11.538;2023-05-07T01:51:41;12.60;99.90
47520;DHT22;33252;48.122;11.538;2023-05-07T01:54:08;12.50;99.90
47520;DHT22;33252;48.122;11.538;2023-05-07T01:56:34;12.50;99.90
47520;DHT22;33252;48.122;11.538;2023-05-07T01:59:02;12.60;99.90
47520;DHT22;33252;48.122;11.538;2023-05-07T02:01:28;12.70;99.90
47520;DHT22;33252;48.122;11.538;2023-05-07T02:03:53;12.50;99.90
47520;DHT22;33252;48.122;11.538;2023-05-07T02:06:19;12.60;99.90
47520;DHT22;33252;48.122;11.538;2023-05-07T02:08:45;12.80;99.90
47520;DHT22;33252;48.122;11.538;2023-05-07T02:11:11;12.80;99.90
47520;DHT22;33252;48.122;11.538;2023-05-07T02:13:37;12.70;99.90
47520;DHT22;33252;48.122;11.538;2023-05-07T02:16:03;12.60;99.90
47520;DHT22;33252;48.122;11.538;2023-05-07T02:18:29;12.50;99.90
47520;DHT22;33252;48.122;11.538;2023-05-07T02:20:55;12.50;99.90
47520;DHT22;33252;48.122;11.538;2023-05-07T02:23:20;12.40;99.90
47520;DHT22;33252;48.122;11.538;2023-05-07T02:25:46;12.30;99.90
47520;DHT22;33252;48.122;11.538;2023-05-07T02:28:12;12.30;99.90
47520;DHT22;33252;48.122;11.538;2023-05-07T02:30:38;12.20;99.90
47520;DHT22;33252;48.122;11.538;2023-05-07T02:33:04;12.20;99.90
47520;DHT22;33252;48.122;11.538;2023-05-07T02:35:29;12.20;99.90
47520;DHT22;33252;48.122;11.538;2023-05-07T02:37:55;12.00;99.90
47520;DHT22;33252;48.122;11.538;2023-05-07T02:40:21;12.10;99.90
47520;DHT22;33252;48.122;11.538;2023-05-07T02:42:46;12.10;99.90
47520;DHT22;33252;48.122;11.538;2023-05-07T02:45:12;12.10;99.90
47520;DHT22;33252;48.122;11.538;2023-05-07T02:47:38;12.00;99.90
47520;DHT22;33252;48.122;11.538;2023-05-07T02:50:04;12.10;99.90
47520;DHT22;33252;48.122;11.538;2023-05-07T02:52:30;11.90;99.90
47520;DHT22;33252;48.122;11.538;2023-05-07T02:54:55;11.80;99.90
47520;DHT22;33252;48.122;11.538;2023-05-07T02:57:21;11.90;99.90
47520;DHT22;33252;48.122;11.538;2023-05-07T02:59:46;11.90;99.90
47520;DHT22;33252;48.122;11.538;2023-05-07T03:02:12;12.00;99.90
47520;DHT22;33252;48.122;11.538;2023-05-07T03:04:39;12.10;99.90
47520;DHT22;33252;48.122;11.538;2023-05-07T03:07:05;12.10;99.90
47520;DHT22;33252;48.122;11.538;2023-05-07T03:09:30;12.00;99.90
47520;DHT22;33252;48.122;11.538;2023-05-07T03:11:56;11.90;99.90
47520;DHT22;33252;48.122;11.538;2023-05-07T03:14:22;11.90;99.90
47520;DHT22;33252;48.122;11.538;2023-05-07T03:16:49;11.80;99.90
47520;DHT22;33252;48.122;11.538;2023-05-07T03:19:14;11.80;99.90
47520;DHT22;33252;48.122;11.538;2023-05-07T03:21:40;11.80;99.90
47520;DHT22;33252;48.122;11.538;2023-05-07T03:24:06;11.70;99.90
47520;DHT22;33252;48.122;11.538;2023-05-07T03:26:31;11.60;99.90
47520;DHT22;33252;48.122;11.538;2023-05-07T03:28:57;11.60;99.90
47520;DHT22;33252;48.122;11.538;2023-05-07T03:31:23;11.90;99.90
47520;DHT22;33252;48.122;11.538;2023-05-07T03:33:53;11.80;99.90
47520;DHT22;33252;48.122;11.538;2023-05-07T03:36:20;11.80;99.90
47520;DHT22;33252;48.122;11.538;2023-05-07T03:38:46;11.80;99.90
47520;DHT22;33252;48.122;11.538;2023-05-07T03:41:12;11.60;99.90
47520;DHT22;33252;48.122;11.538;2023-05-07T03:43:38;11.60;99.90
47520;DHT22;33252;48.122;11.538;2023-05-07T03:46:03;11.60;99.90
47520;DHT22;33252;48.122;11.538;2023-05-07T03:48:29;11.80;99.90
47520;DHT22;33252;48.122;11.538;2023-05-07T03:50:56;11.70;99.90
47520;DHT22;33252;48.122;11.538;2023-05-07T03:53:22;11.70;99.90
47520;DHT22;33252;48.122;11.538;2023-05-07T03:55:48;11.60;99.90
47520;DHT22;33252;48.122;11.538;2023-05-07T03:58:13;11.50;99.90
47520;DHT22;33252;48.122;11.538;2023-05-07T04:00:39;11.50;99.90
47520;DHT22;33252;48.122;11.538;2023-05-07T04:03:06;11.50;99.90
47520;DHT22;33252;48.122;11.538;2023-05-07T04:05:32;11.60;99.90
47520;DHT22;33252;48.122;11.538;2023-05-07T04:07:59;11.60;99.90
47520;DHT22;33252;48.122;11.538;2023-05-07T04:10:25;11.60;99.90
47520;DHT22;33252;48.122;11.538;2023-05-07T04:12:50;11.60;99.90
47520;DHT22;33252;48.122;11.538;2023-05-07T04:15:16;11.70;99.90
47520;DHT22;33252;48.122;11.538;2023-05-07T04:17:42;11.60;99.90
47520;DHT22;33252;48.122;11.538;2023-05-07T04:20:09;11.50;99.90
47520;DHT22;33252;48.122;11.538;2023-05-07T04:22:36;11.40;99.90
47520;DHT22;33252;48.122;11.538;2023-05-07T04:25:02;11.30;99.90
47520;DHT22;33252;48.122;11.538;2023-05-07T04:27:28;11.30;99.90
47520;DHT22;33252;48.122;11.538;2023-05-07T04:29:54;11.30;99.90
47520;DHT22;33252;48.122;11.538;2023-05-07T04:32:21;11.60;99.90
47520;DHT22;33252;48.122;11.538;2023-05-07T04:34:47;11.50;99.90
47520;DHT22;33252;48.122;11.538;2023-05-07T04:37:13;11.50;99.90
47520;DHT22;33252;48.122;11.538;2023-05-07T04:39:39;11.50;99.90
47520;DHT22;33252;48.122;11.538;2023-05-07T04:42:04;11.50;99.90
47520;DHT22;33252;48.122;11.538;2023-05-07T04:44:32;11.60;99.90
47520;DHT22;33252;48.122;11.538;2023-05-07T04:46:59;11.80;99.90
47520;DHT22;33252;48.122;11.538;2023-05-07T04:49:25;11.90;99.90
47520;DHT22;33252;48.122;11.538;2023-05-07T04:51:51;11.90;99.90
47520;DHT22;33252;48.122;11.538;2023-05-07T04:54:16;11.70;99.90
47520;DHT22;33252;48.122;11.538;2023-05-07T04:56:42;11.60;99.90
47520;DHT22;33252;48.122;11.538;2023-05-07T04:59:07;11.60;99.90
47520;DHT22;33252;48.122;11.538;2023-05-07T05:01:33;11.80;99.90
47520;DHT22;33252;48.122;11.538;2023-05-07T05:03:59;11.80;99.90
47520;DHT22;33252;48.122;11.538;2023-05-07T05:06:25;11.80;99.90
47520;DHT22;33252;48.122;11.538;2023-05-07T05:08:51;11.80;99.90
47520;DHT22;33252;48.122;11.538;2023-05-07T05:11:17;11.90;99.90
47520;DHT22;33252;48.122;11.538;2023-05-07T05:13:43;11.90;99.90
47520;DHT22;33252;48.122;11.538;2023-05-07T05:16:08;11.90;99.90
47520;DHT22;33252;48.122;11.538;2023-05-07T05:18:34;12.00;99.90
47520;DHT22;33252;48.122;11.538;2023-05-07T05:21:00;11.90;99.90
47520;DHT22;33252;48.122;11.538;2023-05-07T05:23:26;12.00;99.90
47520;DHT22;33252;48.122;11.538;2023-05-07T05:25:56;12.00;99.90
47520;DHT22;33252;48.122;11.538;2023-05-07T05:28:23;12.10;99.90
47520;DHT22;33252;48.122;11.538;2023-05-07T05:30:49;12.20;99.90
47520;DHT22;33252;48.122;11.538;2023-05-07T05:33:14;12.40;99.90
47520;DHT22;33252;48.122;11.538;2023-05-07T05:35:40;12.50;99.90
47520;DHT22;33252;48.122;11.538;2023-05-07T05:38:05;12.60;99.90
47520;DHT22;33252;48.122;11.538;2023-05-07T05:40:31;12.60;99.90
47520;DHT22;33252;48.122;11.538;2023-05-07T05:42:57;12.80;99.90
47520;DHT22;33252;48.122;11.538;2023-05-07T05:45:23;13.00;99.90
47520;DHT22;33252;48.122;11.538;2023-05-07T05:47:48;13.10;99.90
47520;DHT22;33252;48.122;11.538;2023-05-07T05:50:14;13.20;99.90
47520;DHT22;33252;48.122;11.538;2023-05-07T05:52:40;13.30;99.90
47520;DHT22;33252;48.122;11.538;2023-05-07T05:55:06;13.20;99.90
47520;DHT22;33252;48.122;11.538;2023-05-07T05:57:32;13.30;99.90
47520;DHT22;33252;48.122;11.538;2023-05-07T05:59:58;13.40;99.90
47520;DHT22;33252;48.122;11.538;2023-05-07T06:02:23;13.60;99.90
47520;DHT22;33252;48.122;11.538;2023-05-07T06:04:49;13.60;99.90
47520;DHT22;33252;48.122;11.538;2023-05-07T06:07:15;13.70;99.90
47520;DHT22;33252;48.122;11.538;2023-05-07T06:09:40;13.80;99.90
47520;DHT22;33252;48.122;11.538;2023-05-07T06:12:06;13.90;99.90
47520;DHT22;33252;48.122;11.538;2023-05-07T06:14:32;13.90;99.90
47520;DHT22;33252;48.122;11.538;2023-05-07T06:16:57;14.00;99.90
47520;DHT22;33252;48.122;11.538;2023-05-07T06:19:23;14.10;99.90
47520;DHT22;33252;48.122;11.538;2023-05-07T06:21:49;14.20;99.90
47520;DHT22;33252;48.122;11.538;2023-05-07T06:24:15;14.20;99.90
47520;DHT22;33252;48.122;11.538;2023-05-07T06:26:41;14.30;99.90
47520;DHT22;33252;48.122;11.538;2023-05-07T06:29:06;14.40;99.90
47520;DHT22;33252;48.122;11.538;2023-05-07T06:31:32;14.50;99.90
47520;DHT22;33252;48.122;11.538;2023-05-07T06:33:58;14.60;99.90
47520;DHT22;33252;48.122;11.538;2023-05-07T06:36:24;14.70;99.90
47520;DHT22;33252;48.122;11.538;2023-05-07T06:38:50;14.70;99.90
47520;DHT22;33252;48.122;11.538;2023-05-07T06:41:16;14.80;99.90
47520;DHT22;33252;48.122;11.538;2023-05-07T06:43:41;15.00;99.90
47520;DHT22;33252;48.122;11.538;2023-05-07T06:46:07;15.10;99.90
47520;DHT22;33252;48.122;11.538;2023-05-07T06:48:32;15.10;99.90
47520;DHT22;33252;48.122;11.538;2023-05-07T06:50:58;15.20;99.90
47520;DHT22;33252;48.122;11.538;2023-05-07T06:53:24;15.20;99.90
47520;DHT22;33252;48.122;11.538;2023-05-07T06:55:50;15.30;99.90
47520;DHT22;33252;48.122;11.538;2023-05-07T06:58:15;15.40;99.90
47520;DHT22;33252;48.122;11.538;2023-05-07T07:00:41;15.50;99.90
47520;DHT22;33252;48.122;11.538;2023-05-07T07:03:07;15.60;99.90
47520;DHT22;33252;48.122;11.538;2023-05-07T07:05:33;15.60;99.90
47520;DHT22;33252;48.122;11.538;2023-05-07T07:07:58;15.70;99.90
47520;DHT22;33252;48.122;11.538;2023-05-07T07:10:24;15.80;99.90
47520;DHT22;33252;48.122;11.538;2023-05-07T07:12:50;15.90;99.90
47520;DHT22;33252;48.122;11.538;2023-05-07T07:15:17;16.00;99.90
47520;DHT22;33252;48.122;11.538;2023-05-07T07:17:43;16.00;99.90
47520;DHT22;33252;48.122;11.538;2023-05-07T07:20:09;16.10;99.90
47520;DHT22;33252;48.122;11.538;2023-05-07T07:22:35;16.10;99.90
47520;DHT22;33252;48.122;11.538;2023-05-07T07:25:01;16.30;99.90
47520;DHT22;33252;48.122;11.538;2023-05-07T07:27:26;16.40;99.90
47520;DHT22;33252;48.122;11.538;2023-05-07T07:29:52;16.40;99.90
47520;DHT22;33252;48.122;11.538;2023-05-07T07:32:18;16.60;99.90
47520;DHT22;33252;48.122;11.538;2023-05-07T07:34:44;16.70;99.90
47520;DHT22;33252;48.122;11.538;2023-05-07T07:37:10;16.70;99.90
47520;DHT22;33252;48.122;11.538;2023-05-07T07:39:35;16.70;99.90
47520;DHT22;33252;48.122;11.538;2023-05-07T07:42:03;16.80;99.90
47520;DHT22;33252;48.122;11.538;2023-05-07T07:44:28;16.80;99.90
47520;DHT22;33252;48.122;11.538;2023-05-07T07:46:54;16.90;99.90
47520;DHT22;33252;48.122;11.538;2023-05-07T07:49:20;17.00;99.90
47520;DHT22;33252;48.122;11.538;2023-05-07T07:51:46;16.90;99.90
47520;DHT22;33252;48.122;11.538;2023-05-07T07:54:11;16.90;99.90
47520;DHT22;33252;48.122;11.538;2023-05-07T07:56:37;17.00;99.90
47520;DHT22;33252;48.122;11.538;2023-05-07T07:59:03;17.30;99.90
47520;DHT22;33252;48.122;11.538;2023-05-07T08:01:30;17.40;99.90
47520;DHT22;33252;48.122;11.538;2023-05-07T08:03:56;17.50;99.90
47520;DHT22;33252;48.122;11.538;2023-05-07T08:06:24;17.60;99.90
47520;DHT22;33252;48.122;11.538;2023-05-07T08:08:51;17.70;99.90
47520;DHT22;33252;48.122;11.538;2023-05-07T08:19:28;17.90;99.90
47520;DHT22;33252;48.122;11.538;2023-05-07T08:21:53;18.00;99.90
47520;DHT22;33252;48.122;11.538;2023-05-07T08:24:19;18.00;99.90
47520;DHT22;33252;48.122;11.538;2023-05-07T08:26:45;18.00;99.90
47520;DHT22;33252;48.122;11.538;2023-05-07T08:29:10;18.10;99.90
47520;DHT22;33252;48.122;11.538;2023-05-07T08:31:36;18.20;99.90
47520;DHT22;33252;48.122;11.538;2023-05-07T08:34:04;18.20;99.90
47520;DHT22;33252;48.122;11.538;2023-05-07T08:36:30;18.30;99.90
47520;DHT22;33252;48.122;11.538;2023-05-07T08:38:56;18.20;99.90
47520;DHT22;33252;48.122;11.538;2023-05-07T08:41:21;18.30;99.90
47520;DHT22;33252;48.122;11.538;2023-05-07T08:43:49;18.40;99.90
47520;DHT22;33252;48.122;11.538;2023-05-07T08:46:20;18.40;99.90
47520;DHT22;33252;48.122;11.538;2023-05-07T08:48:50;18.40;99.90
47520;DHT22;33252;48.122;11.538;2023-05-07T08:51:18;18.60;99.90
47520;DHT22;33252;48.122;11.538;2023-05-07T08:53:44;18.70;99.90
47520;DHT22;33252;48.122;11.538;2023-05-07T08:56:10;18.60;99.90
47520;DHT22;33252;48.122;11.538;2023-05-07T08:58:36;18.60;99.90
47520;DHT22;33252;48.122;11.538;2023-05-07T09:01:08;18.70;99.90
47520;DHT22;33252;48.122;11.538;2023-05-07T09:03:37;18.60;99.90
47520;DHT22;33252;48.122;11.538;2023-05-07T09:06:03;18.80;99.90
47520;DHT22;33252;48.122;11.538;2023-05-07T09:08:29;18.90;99.90
47520;DHT22;33252;48.122;11.538;2023-05-07T09:10:55;18.90;99.90
47520;DHT22;33252;48.122;11.538;2023-05-07T09:13:20;18.90;99.90
47520;DHT22;33252;48.122;11.538;2023-05-07T09:15:46;18.90;99.90
47520;DHT22;33252;48.122;11.538;2023-05-07T09:18:12;18.90;99.90
47520;DHT22;33252;48.122;11.538;2023-05-07T09:20:39;18.90;99.90
47520;DHT22;33252;48.122;11.538;2023-05-07T09:23:06;19.00;99.90
47520;DHT22;33252;48.122;11.538;2023-05-07T09:25:33;19.10;99.90
47520;DHT22;33252;48.122;11.538;2023-05-07T09:28:04;19.10;99.90
47520;DHT22;33252;48.122;11.538;2023-05-07T09:30:30;19.20;99.90
47520;DHT22;33252;48.122;11.538;2023-05-07T09:32:58;19.30;99.90
47520;DHT22;33252;48.122;11.538;2023-05-07T09:35:24;19.30;99.90
47520;DHT22;33252;48.122;11.538;2023-05-07T09:37:53;19.50;99.90
47520;DHT22;33252;48.122;11.538;2023-05-07T09:40:30;19.50;99.30
47520;DHT22;33252;48.122;11.538;2023-05-07T09:42:56;19.70;99.50
47520;DHT22;33252;48.122;11.538;2023-05-07T09:45:33;19.70;99.70
47520;DHT22;33252;48.122;11.538;2023-05-07T09:48:00;19.60;98.60
47520;DHT22;33252;48.122;11.538;2023-05-07T09:50:34;19.70;98.60
47520;DHT22;33252;48.122;11.538;2023-05-07T09:53:01;19.90;98.90
47520;DHT22;33252;48.122;11.538;2023-05-07T09:55:28;19.90;98.70
47520;DHT22;33252;48.122;11.538;2023-05-07T09:57:55;19.90;98.70
47520;DHT22;33252;48.122;11.538;2023-05-07T10:00:21;20.20;98.60
47520;DHT22;33252;48.122;11.538;2023-05-07T10:02:52;20.20;98.70
47520;DHT22;33252;48.122;11.538;2023-05-07T10:05:22;20.10;98.80
47520;DHT22;33252;48.122;11.538;2023-05-07T10:07:48;19.90;96.60
47520;DHT22;33252;48.122;11.538;2023-05-07T10:10:15;19.90;98.40
47520;DHT22;33252;48.122;11.538;2023-05-07T10:12:41;20.00;98.90
47520;DHT22;33252;48.122;11.538;2023-05-07T10:15:10;20.10;97.40
47520;DHT22;33252;48.122;11.538;2023-05-07T10:17:37;20.10;98.20
47520;DHT22;33252;48.122;11.538;2023-05-07T10:20:05;20.10;96.80
47520;DHT22;33252;48.122;11.538;2023-05-07T10:22:37;20.10;98.30
47520;DHT22;33252;48.122;11.538;2023-05-07T10:25:06;20.10;97.20
47520;DHT22;33252;48.122;11.538;2023-05-07T10:27:35;20.10;97.80
47520;DHT22;33252;48.122;11.538;2023-05-07T10:30:12;20.00;98.50
47520;DHT22;33252;48.122;11.538;2023-05-07T10:32:45;20.00;98.80
47520;DHT22;33252;48.122;11.538;2023-05-07T10:35:29;20.10;97.20
47520;DHT22;33252;48.122;11.538;2023-05-07T10:37:56;20.20;97.50
47520;DHT22;33252;48.122;11.538;2023-05-07T10:40:22;20.40;97.10
47520;DHT22;33252;48.122;11.538;2023-05-07T10:43:04;20.50;97.10
47520;DHT22;33252;48.122;11.538;2023-05-07T10:45:31;20.50;97.30
47520;DHT22;33252;48.122;11.538;2023-05-07T10:48:09;20.60;96.50
47520;DHT22;33252;48.122;11.538;2023-05-07T10:50:44;20.80;97.10
47520;DHT22;33252;48.122;11.538;2023-05-07T10:55:49;20.90;95.40
47520;DHT22;33252;48.122;11.538;2023-05-07T10:58:24;20.90;95.80
47520;DHT22;33252;48.122;11.538;2023-05-07T11:01:00;20.90;95.60
47520;DHT22;33252;48.122;11.538;2023-05-07T11:03:27;20.90;95.90
47520;DHT22;33252;48.122;11.538;2023-05-07T11:06:16;20.90;95.30
47520;DHT22;33252;48.122;11.538;2023-05-07T11:08:56;20.90;96.10
47520;DHT22;33252;48.122;11.538;2023-05-07T11:11:45;21.00;96.80
47520;DHT22;33252;48.122;11.538;2023-05-07T11:14:13;21.00;96.40
47520;DHT22;33252;48.122;11.538;2023-05-07T11:16:41;20.90;95.50
47520;DHT22;33252;48.122;11.538;2023-05-07T11:19:07;20.90;95.00
47520;DHT22;33252;48.122;11.538;2023-05-07T11:21:36;21.00;95.70
47520;DHT22;33252;48.122;11.538;2023-05-07T11:24:03;21.10;96.10
47520;DHT22;33252;48.122;11.538;2023-05-07T11:29:18;21.20;95.20
47520;DHT22;33252;48.122;11.538;2023-05-07T11:31:48;21.30;95.20
47520;DHT22;33252;48.122;11.538;2023-05-07T11:34:15;21.40;95.30
47520;DHT22;33252;48.122;11.538;2023-05-07T11:36:46;21.50;94.00
47520;DHT22;33252;48.122;11.538;2023-05-07T11:39:30;21.40;95.10
47520;DHT22;33252;48.122;11.538;2023-05-07T11:41:58;21.50;96.00
47520;DHT22;33252;48.122;11.538;2023-05-07T11:44:24;21.60;94.80
47520;DHT22;33252;48.122;11.538;2023-05-07T11:46:50;21.50;95.30
47520;DHT22;33252;48.122;11.538;2023-05-07T11:49:15;21.50;95.10
47520;DHT22;33252;48.122;11.538;2023-05-07T11:51:41;21.60;95.50
47520;DHT22;33252;48.122;11.538;2023-05-07T11:54:08;21.70;95.40
47520;DHT22;33252;48.122;11.538;2023-05-07T11:56:37;21.70;94.40
47520;DHT22;33252;48.122;11.538;2023-05-07T11:59:02;21.70;94.40
47520;DHT22;33252;48.122;11.538;2023-05-07T12:01:28;21.80;93.40
47520;DHT22;33252;48.122;11.538;2023-05-07T12:03:54;21.80;94.60
47520;DHT22;33252;48.122;11.538;2023-05-07T12:06:19;22.10;94.20
47520;DHT22;33252;48.122;11.538;2023-05-07T12:08:46;22.00;96.00
47520;DHT22;33252;48.122;11.538;2023-05-07T12:11:21;22.00;94.60
47520;DHT22;33252;48.122;11.538;2023-05-07T12:13:47;21.90;95.30
47520;DHT22;33252;48.122;11.538;2023-05-07T12:16:13;21.90;94.50
47520;DHT22;33252;48.122;11.538;2023-05-07T12:18:39;22.00;94.10
47520;DHT22;33252;48.122;11.538;2023-05-07T12:21:06;21.90;94.90
47520;DHT22;33252;48.122;11.538;2023-05-07T12:23:33;21.90;95.50
47520;DHT22;33252;48.122;11.538;2023-05-07T12:25:59;21.80;95.60
47520;DHT22;33252;48.122;11.538;2023-05-07T12:28:25;21.80;94.90
47520;DHT22;33252;48.122;11.538;2023-05-07T12:30:51;21.80;94.50
47520;DHT22;33252;48.122;11.538;2023-05-07T12:33:20;21.90;94.70
47520;DHT22;33252;48.122;11.538;2023-05-07T12:35:48;22.00;92.00
47520;DHT22;33252;48.122;11.538;2023-05-07T12:38:16;21.90;93.60
47520;DHT22;33252;48.122;11.538;2023-05-07T12:40:46;22.00;95.20
47520;DHT22;33252;48.122;11.538;2023-05-07T12:43:26;21.90;94.70
47520;DHT22;33252;48.122;11.538;2023-05-07T12:45:55;22.00;93.20
47520;DHT22;33252;48.122;11.538;2023-05-07T12:48:21;21.90;93.20
47520;DHT22;33252;48.122;11.538;2023-05-07T12:50:51;21.90;94.30
47520;DHT22;33252;48.122;11.538;2023-05-07T12:53:22;22.00;92.30
47520;DHT22;33252;48.122;11.538;2023-05-07T12:55:49;22.10;92.90
47520;DHT22;33252;48.122;11.538;2023-05-07T12:58:20;22.20;94.80
47520;DHT22;33252;48.122;11.538;2023-05-07T13:00:48;22.40;93.90
47520;DHT22;33252;48.122;11.538;2023-05-07T13:03:28;22.40;92.60
47520;DHT22;33252;48.122;11.538;2023-05-07T13:05:55;22.60;92.50
47520;DHT22;33252;48.122;11.538;2023-05-07T13:08:26;22.60;91.40
47520;DHT22;33252;48.122;11.538;2023-05-07T13:10:52;22.70;92.30
47520;DHT22;33252;48.122;11.538;2023-05-07T13:13:19;22.80;94.00
47520;DHT22;33252;48.122;11.538;2023-05-07T13:15:45;22.70;92.00
47520;DHT22;33252;48.122;11.538;2023-05-07T13:18:11;22.90;90.80
47520;DHT22;33252;48.122;11.538;2023-05-07T13:20:37;23.10;91.40
47520;DHT22;33252;48.122;11.538;2023-05-07T13:23:02;23.40;91.70
47520;DHT22;33252;48.122;11.538;2023-05-07T13:25:30;23.90;89.90
47520;DHT22;33252;48.122;11.538;2023-05-07T13:27:59;24.30;92.00
47520;DHT22;33252;48.122;11.538;2023-05-07T13:30:25;24.70;91.00
47520;DHT22;33252;48.122;11.538;2023-05-07T13:32:53;24.90;87.00
47520;DHT22;33252;48.122;11.538;2023-05-07T13:35:19;25.10;85.90
47520;DHT22;33252;48.122;11.538;2023-05-07T13:37:44;25.70;85.10
47520;DHT22;33252;48.122;11.538;2023-05-07T13:40:10;26.00;85.70
47520;DHT22;33252;48.122;11.538;2023-05-07T13:42:36;26.00;84.40
47520;DHT22;33252;48.122;11.538;2023-05-07T13:45:02;26.30;87.10
47520;DHT22;33252;48.122;11.538;2023-05-07T13:47:29;26.80;85.90
47520;DHT22;33252;48.122;11.538;2023-05-07T13:49:55;27.20;81.10
47520;DHT22;33252;48.122;11.538;2023-05-07T13:52:20;27.60;83.40
47520;DHT22;33252;48.122;11.538;2023-05-07T13:54:46;27.40;83.00
47520;DHT22;33252;48.122;11.538;2023-05-07T13:57:11;27.60;79.60
47520;DHT22;33252;48.122;11.538;2023-05-07T13:59:37;27.80;80.20
47520;DHT22;33252;48.122;11.538;2023-05-07T14:02:03;27.80;80.30
47520;DHT22;33252;48.122;11.538;2023-05-07T14:04:30;27.30;74.50
47520;DHT22;33252;48.122;11.538;2023-05-07T14:06:55;27.20;81.00
47520;DHT22;33252;48.122;11.538;2023-05-07T14:09:21;26.80;80.20
47520;DHT22;33252;48.122;11.538;2023-05-07T14:11:47;26.60;76.70
47520;DHT22;33252;48.122;11.538;2023-05-07T14:14:19;25.70;77.20
47520;DHT22;33252;48.122;11.538;2023-05-07T14:16:45;25.30;84.20
47520;DHT22;33252;48.122;11.538;2023-05-07T14:19:11;25.00;83.00
47520;DHT22;33252;48.122;11.538;2023-05-07T14:21:37;24.60;83.90
47520;DHT22;33252;48.122;11.538;2023-05-07T14:24:03;24.00;86.10
47520;DHT22;33252;48.122;11.538;2023-05-07T14:26:29;23.60;84.00
47520;DHT22;33252;48.122;11.538;2023-05-07T14:28:55;23.50;82.90
47520;DHT22;33252;48.122;11.538;2023-05-07T14:31:23;23.30;85.10
47520;DHT22;33252;48.122;11.538;2023-05-07T14:33:49;23.30;84.00
47520;DHT22;33252;48.122;11.538;2023-05-07T14:36:16;23.30;87.60
47520;DHT22;33252;48.122;11.538;2023-05-07T14:38:42;23.30;85.90
47520;DHT22;33252;48.122;11.538;2023-05-07T14:41:08;23.40;83.00
47520;DHT22;33252;48.122;11.538;2023-05-07T14:43:34;23.40;89.50
47520;DHT22;33252;48.122;11.538;2023-05-07T14:45:59;23.40;88.30
47520;DHT22;33252;48.122;11.538;2023-05-07T14:48:25;23.40;84.30
47520;DHT22;33252;48.122;11.538;2023-05-07T14:50:51;23.40;84.70
47520;DHT22;33252;48.122;11.538;2023-05-07T14:53:16;23.10;86.30
47520;DHT22;33252;48.122;11.538;2023-05-07T14:55:42;22.90;89.40
47520;DHT22;33252;48.122;11.538;2023-05-07T14:58:08;22.70;86.10
47520;DHT22;33252;48.122;11.538;2023-05-07T15:00:34;22.60;87.60
47520;DHT22;33252;48.122;11.538;2023-05-07T15:03:10;22.50;89.90
47520;DHT22;33252;48.122;11.538;2023-05-07T15:05:36;22.30;88.70
47520;DHT22;33252;48.122;11.538;2023-05-07T15:08:02;22.20;87.60
47520;DHT22;33252;48.122;11.538;2023-05-07T15:10:28;22.10;89.10
47520;DHT22;33252;48.122;11.538;2023-05-07T15:12:54;22.00;89.10
47520;DHT22;33252;48.122;11.538;2023-05-07T15:15:19;21.90;89.70
47520;DHT22;33252;48.122;11.538;2023-05-07T15:17:45;21.90;90.00
47520;DHT22;33252;48.122;11.538;2023-05-07T15:20:11;21.80;89.70
47520;DHT22;33252;48.122;11.538;2023-05-07T15:22:36;21.80;90.50
47520;DHT22;33252;48.122;11.538;2023-05-07T15:25:05;21.70;90.10
47520;DHT22;33252;48.122;11.538;2023-05-07T15:27:31;21.60;90.10